Time;durP1;ratioP1;P1;durP2;ratioP2;P2;SDS_P1;SDS_P2;PMS_P1;PMS_P2;Temp;Humidity;BMP_temperature;BMP_pressure;BME280_temperature;BME280_humidity;BME280_pressure;Samples;Min_cycle;Max_cycle;Signal;HPM_P1;HPM_P2
2020/12/04 00:00:19;;;;;;;2.42;1.23;;;;;;;17.39;56.78;98237.94;4825028;29;20058;-81
2020/12/04 00:05:59;;;;;;;2.70;1.23;;;;;;;17.37;56.67;98225.00;4797543;29;21412;-82
2020/12/04 00:11:56;;;;;;;2.67;1.10;;;;;;;17.37;56.67;98216.38;4801392;29;20067;-82
2020/12/04 00:14:42;;;;;;;2.80;1.33;;;;;;;17.41;56.77;98216.13;4831173;29;20110;-82
2020/12/04 00:17:12;;;;;;;2.25;1.40;;;;;;;17.40;56.75;98208.44;4808691;29;20023;-81
2020/12/04 00:20:03;;;;;;;1.50;1.00;;;;;;;17.39;56.67;98193.75;4836346;29;20050;-81
2020/12/04 00:23:03;;;;;;;2.80;1.05;;;;;;;17.38;56.70;98186.88;4822863;29;20046;-81
2020/12/04 00:26:08;;;;;;;1.98;1.13;;;;;;;17.40;56.78;98182.44;4836350;29;20061;-81
2020/12/04 00:28:59;;;;;;;2.13;0.90;;;;;;;17.39;56.63;98178.97;4854192;29;20097;-82
2020/12/04 00:32:19;;;;;;;2.72;1.13;;;;;;;17.38;56.59;98166.09;4854204;29;20038;-82
2020/12/04 00:34:48;;;;;;;1.70;1.00;;;;;;;17.41;56.61;98171.09;4790869;30;20091;-81
2020/12/04 00:41:00;;;;;;;2.08;1.15;;;;;;;17.41;56.60;98152.91;4789611;30;20019;-81
2020/12/04 00:43:56;;;;;;;2.15;1.10;;;;;;;17.39;56.60;98147.78;4803910;29;20066;-81
2020/12/04 00:46:34;;;;;;;4.07;0.90;;;;;;;17.38;56.66;98143.50;4774370;30;20027;-81
2020/12/04 00:49:03;;;;;;;2.03;1.10;;;;;;;17.42;56.67;98145.03;4755524;30;20043;-80
2020/12/04 00:51:29;;;;;;;2.03;1.00;;;;;;;17.41;56.68;98140.75;4736099;30;20075;-80
2020/12/04 00:53:57;;;;;;;1.90;1.00;;;;;;;17.41;56.67;98129.50;4728522;30;20079;-80
2020/12/04 00:56:30;;;;;;;1.65;0.82;;;;;;;17.40;56.20;98120.88;4732209;30;20079;-80
2020/12/04 00:58:55;;;;;;;1.55;0.80;;;;;;;17.41;56.49;98119.13;4728518;30;20037;-80
2020/12/04 01:01:21;;;;;;;1.10;0.70;;;;;;;17.40;56.47;98113.09;4720616;30;20191;-80
2020/12/04 01:03:46;;;;;;;1.98;0.90;;;;;;;17.40;56.66;98105.28;4735501;30;20076;-80
2020/12/04 01:06:12;;;;;;;1.88;0.80;;;;;;;17.40;56.53;98102.69;4723615;30;20217;-80
2020/12/04 01:08:38;;;;;;;1.23;0.80;;;;;;;17.42;56.58;98102.59;4720145;30;20132;-80
2020/12/04 01:11:04;;;;;;;1.95;0.80;;;;;;;17.42;56.56;98097.38;4710986;30;20448;-80
2020/12/04 01:13:29;;;;;;;1.35;0.88;;;;;;;17.43;56.54;98096.47;4724806;30;20076;-80
2020/12/04 01:15:57;;;;;;;1.55;0.80;;;;;;;17.41;56.68;98093.13;4718849;30;20093;-80
2020/12/04 01:18:23;;;;;;;1.58;0.82;;;;;;;17.42;56.32;98085.25;4769626;29;20050;-80
2020/12/04 01:20:48;;;;;;;1.17;0.80;;;;;;;17.43;56.44;98080.88;4826037;29;20406;-80
2020/12/04 01:23:14;;;;;;;1.10;0.70;;;;;;;17.42;56.58;98076.59;4803881;29;20044;-80
2020/12/04 01:25:39;;;;;;;2.10;0.70;;;;;;;17.41;56.43;98075.75;4817850;29;20549;-79
2020/12/04 01:28:05;;;;;;;0.93;0.70;;;;;;;17.42;56.60;98074.84;4844294;29;20044;-80
2020/12/04 01:30:33;;;;;;;1.42;0.70;;;;;;;17.43;56.57;98076.50;4826620;29;20026;-79
2020/12/04 01:32:58;;;;;;;1.50;0.77;;;;;;;17.43;56.49;98067.88;4814148;29;20453;-79
2020/12/04 01:35:24;;;;;;;1.15;0.68;;;;;;;17.42;56.54;98061.84;4840168;29;20030;-79
2020/12/04 01:37:50;;;;;;;1.20;0.75;;;;;;;17.44;56.50;98059.16;4824715;29;20029;-80
2020/12/04 01:40:18;;;;;;;0.85;0.52;;;;;;;17.43;56.83;98053.13;4849565;29;20035;-79
2020/12/04 01:42:44;;;;;;;0.70;0.60;;;;;;;17.42;56.40;98038.47;4838060;29;20045;-80
2020/12/04 01:45:09;;;;;;;0.75;0.55;;;;;;;17.43;56.34;98040.13;4822980;29;20033;-80
2020/12/04 01:47:35;;;;;;;1.23;0.65;;;;;;;17.43;56.60;98034.09;4829973;29;20027;-79
2020/12/04 01:50:00;;;;;;;0.77;0.55;;;;;;;17.43;56.36;98040.13;4831455;29;20032;-79
2020/12/04 01:52:26;;;;;;;0.80;0.60;;;;;;;17.43;56.54;98037.53;4833150;29;20025;-79
2020/12/04 01:54:52;;;;;;;1.02;0.60;;;;;;;17.42;56.53;98024.59;4835978;29;20034;-79
2020/12/04 01:57:21;;;;;;;0.90;0.70;;;;;;;17.44;56.28;98022.75;4844796;29;20033;-79
2020/12/04 01:59:46;;;;;;;0.95;0.60;;;;;;;17.42;56.59;98012.47;4826607;29;20034;-80
2020/12/04 02:02:19;;;;;;;1.00;0.70;;;;;;;17.43;56.46;98023.69;4828356;29;20040;-80
2020/12/04 02:04:49;;;;;;;0.67;0.60;;;;;;;17.43;56.55;98018.50;4842994;29;20038;-80
2020/12/04 02:07:30;;;;;;;1.67;0.60;;;;;;;17.43;56.60;98010.69;4839522;29;20030;-80
2020/12/04 02:10:01;;;;;;;1.00;0.70;;;;;;;17.42;56.42;98012.47;4842776;29;20065;-80
2020/12/04 02:12:27;;;;;;;0.82;0.60;;;;;;;17.44;56.48;98001.97;4839993;29;20026;-80
2020/12/04 02:14:53;;;;;;;0.90;0.70;;;;;;;17.45;56.66;97995.84;4835459;29;20101;-80
2020/12/04 02:17:33;;;;;;;0.93;0.60;;;;;;;17.42;56.56;97991.66;4847645;29;20030;-80
2020/12/04 02:19:59;;;;;;;1.80;0.60;;;;;;;17.42;56.40;97989.06;4842492;29;20045;-80
2020/12/04 02:22:24;;;;;;;1.15;0.60;;;;;;;17.45;56.33;97990.66;4815824;29;20034;-80
2020/12/04 02:24:53;;;;;;;0.63;0.50;;;;;;;17.42;56.68;97991.66;4813486;29;20058;-80
2020/12/04 02:27:19;;;;;;;0.63;0.50;;;;;;;17.45;56.57;97981.09;4853240;29;20037;-80
2020/12/04 02:29:45;;;;;;;0.73;0.50;;;;;;;17.42;56.46;97973.47;4830317;29;20047;-80
2020/12/04 02:32:11;;;;;;;0.82;0.50;;;;;;;17.44;56.42;97975.97;4802914;29;20045;-80
2020/12/04 02:34:37;;;;;;;1.17;0.52;;;;;;;17.43;56.66;97964.72;4826331;29;20038;-80
2020/12/04 02:37:04;;;;;;;1.02;0.60;;;;;;;17.44;56.43;97957.75;4854435;29;20029;-80
2020/12/04 02:39:29;;;;;;;0.82;0.60;;;;;;;17.44;56.50;97953.44;4829724;29;20046;-80
2020/12/04 02:41:55;;;;;;;0.60;0.45;;;;;;;17.44;56.43;97942.16;4837276;29;20497;-81
2020/12/04 02:44:20;;;;;;;0.43;0.43;;;;;;;17.43;56.47;97943.94;4825212;29;20061;-81
2020/12/04 02:46:47;;;;;;;0.70;0.52;;;;;;;17.43;56.51;97927.50;4853907;29;20038;-81
2020/12/04 02:49:12;;;;;;;1.38;0.70;;;;;;;17.43;56.51;97928.34;4839587;29;20052;-81
2020/12/04 02:51:38;;;;;;;1.33;0.70;;;;;;;17.43;56.47;97922.31;4835840;29;20088;-80
2020/12/04 02:54:03;;;;;;;0.88;0.50;;;;;;;17.43;56.35;97936.13;4844640;29;20042;-80
2020/12/04 02:56:28;;;;;;;0.70;0.52;;;;;;;17.43;56.72;97917.94;4840302;29;20094;-80
2020/12/04 02:58:54;;;;;;;0.95;0.70;;;;;;;17.43;56.56;97925.75;4862121;29;20045;-81
2020/12/04 03:01:19;;;;;;;1.52;0.55;;;;;;;17.42;56.74;97911.06;4829483;29;20042;-81
2020/12/04 03:03:44;;;;;;;0.73;0.50;;;;;;;17.40;56.57;97902.53;4855752;29;20034;-81
2020/12/04 03:06:12;;;;;;;0.82;0.50;;;;;;;17.42;56.48;97898.06;4834576;29;20030;-81
2020/12/04 03:08:37;;;;;;;0.65;0.50;;;;;;;17.43;56.39;97893.72;4833885;29;20026;-81
2020/12/04 03:11:04;;;;;;;0.77;0.50;;;;;;;17.41;56.61;97888.59;4842729;29;20033;-81
2020/12/04 03:13:30;;;;;;;1.35;0.50;;;;;;;17.42;56.47;97874.69;4837389;29;20121;-81
2020/12/04 03:15:58;;;;;;;1.33;0.50;;;;;;;17.42;56.61;97871.22;4859474;29;20389;-81
2020/12/04 03:18:23;;;;;;;0.60;0.40;;;;;;;17.41;56.56;97869.56;4849531;29;20046;-81
2020/12/04 03:20:49;;;;;;;1.05;0.50;;;;;;;17.42;56.69;97866.03;4864442;29;20038;-81
2020/12/04 03:23:15;;;;;;;0.57;0.43;;;;;;;17.44;56.46;97861.56;4849559;29;20053;-80
2020/12/04 03:25:40;;;;;;;0.93;0.60;;;;;;;17.43;56.44;97855.53;4853014;29;20034;-80
2020/12/04 03:28:06;;;;;;;1.55;0.50;;;;;;;17.43;56.48;97852.94;4842958;29;20028;-81
2020/12/04 03:30:31;;;;;;;1.50;0.63;;;;;;;17.42;56.36;97853.88;4854387;29;20085;-81
2020/12/04 03:32:57;;;;;;;0.45;0.45;;;;;;;17.43;56.49;97847.75;4854359;29;20481;-81
2020/12/04 03:35:22;;;;;;;0.40;0.40;;;;;;;17.44;56.41;97845.97;4826464;29;20093;-80
2020/12/04 03:37:48;;;;;;;0.68;0.45;;;;;;;17.45;56.26;97860.66;4831354;29;20102;-80
2020/12/04 03:40:13;;;;;;;0.55;0.50;;;;;;;17.44;56.38;97836.44;4835166;29;20036;-80
2020/12/04 03:42:39;;;;;;;0.73;0.60;;;;;;;17.45;56.37;97832.91;4838331;29;20026;-80
2020/12/04 03:45:04;;;;;;;1.30;0.60;;;;;;;17.46;56.54;97838.94;4831387;29;20393;-80
2020/12/04 03:47:30;;;;;;;1.05;0.50;;;;;;;17.44;56.31;97827.78;4823401;29;20508;-80
2020/12/04 03:49:55;;;;;;;0.60;0.40;;;;;;;17.45;56.49;97819.91;4846670;29;20073;-80
2020/12/04 03:52:21;;;;;;;0.50;0.40;;;;;;;17.44;56.41;97812.19;4836953;29;20052;-80
2020/12/04 03:54:47;;;;;;;0.60;0.35;;;;;;;17.45;56.38;97819.06;4831364;29;20061;-80
2020/12/04 03:57:13;;;;;;;0.43;0.40;;;;;;;17.46;56.40;97815.53;4847877;29;20094;-80
2020/12/04 03:59:38;;;;;;;0.45;0.40;;;;;;;17.46;56.58;97813.78;4828203;29;20064;-80
2020/12/04 04:02:04;;;;;;;0.98;0.60;;;;;;;17.45;56.41;97813.88;4818226;29;20037;-81
2020/12/04 04:04:29;;;;;;;0.65;0.50;;;;;;;17.47;56.31;97814.63;4831017;29;20384;-80
2020/12/04 04:06:54;;;;;;;0.50;0.50;;;;;;;17.47;56.15;97809.44;4834166;29;20061;-81
2020/12/04 04:09:20;;;;;;;0.80;0.50;;;;;;;17.47;56.45;97810.25;4833560;29;20034;-81
2020/12/04 04:11:48;;;;;;;0.70;0.38;;;;;;;17.46;56.38;97806.00;4819922;29;20128;-80
2020/12/04 04:14:13;;;;;;;0.50;0.40;;;;;;;17.46;56.37;97808.59;4831307;29;20042;-80
2020/12/04 04:16:38;;;;;;;0.38;0.38;;;;;;;17.46;56.47;97805.13;4817433;29;20182;-80
2020/12/04 04:19:04;;;;;;;0.57;0.50;;;;;;;17.45;56.45;97795.69;4838695;29;20091;-81
2020/12/04 04:21:29;;;;;;;0.93;0.52;;;;;;;17.46;56.31;97798.19;4825672;29;20474;-80
2020/12/04 04:23:58;;;;;;;0.45;0.40;;;;;;;17.47;56.35;97797.25;4821097;29;20077;-80
2020/12/04 04:26:32;;;;;;;0.73;0.55;;;;;;;17.46;56.38;97786.94;4808161;29;20643;-82
2020/12/04 04:29:21;;;;;;;0.40;0.40;;;;;;;17.47;56.13;97789.47;4816800;29;20031;-82
2020/12/04 04:31:59;;;;;;;0.40;0.40;;;;;;;17.46;56.45;97789.53;4820329;29;20058;-81
2020/12/04 04:34:29;;;;;;;0.40;0.32;;;;;;;17.46;56.47;97782.59;4824128;29;20042;-82
2020/12/04 04:37:04;;;;;;;0.80;0.40;;;;;;;17.46;56.37;97769.59;4821751;29;20046;-82
2020/12/04 04:39:33;;;;;;;0.70;0.40;;;;;;;17.46;56.46;97777.41;4806149;29;20104;-82
2020/12/04 04:42:00;;;;;;;0.38;0.30;;;;;;;17.47;56.44;97780.84;4811374;29;20067;-82
2020/12/04 04:44:28;;;;;;;0.70;0.40;;;;;;;17.46;56.45;97774.81;4835203;29;20045;-82
2020/12/04 04:47:06;;;;;;;0.40;0.40;;;;;;;17.48;56.45;97783.34;4817747;29;20034;-82
2020/12/04 04:49:37;;;;;;;0.70;0.38;;;;;;;17.49;56.46;97786.78;4814449;29;20031;-82
2020/12/04 04:52:23;;;;;;;0.28;0.28;;;;;;;17.50;56.56;97787.63;4815339;29;20042;-82
2020/12/04 04:54:50;;;;;;;0.40;0.38;;;;;;;17.50;56.17;97782.41;4813403;29;20083;-81
2020/12/04 04:57:20;;;;;;;0.70;0.40;;;;;;;17.49;56.21;97791.97;4823997;29;20037;-81
2020/12/04 04:59:48;;;;;;;0.50;0.30;;;;;;;17.50;56.37;97783.25;4822129;29;20062;-82
2020/12/04 05:02:21;;;;;;;0.60;0.30;;;;;;;17.50;56.28;97772.00;4821626;29;20035;-81
2020/12/04 05:05:05;;;;;;;0.38;0.38;;;;;;;17.49;56.25;97766.00;4817703;29;20180;-81
2020/12/04 05:07:33;;;;;;;0.57;0.40;;;;;;;17.49;56.29;97766.00;4821894;29;20022;-81
2020/12/04 05:10:13;;;;;;;0.60;0.50;;;;;;;17.51;56.27;97774.53;4821582;29;20039;-82
2020/12/04 05:13:01;;;;;;;1.38;0.40;;;;;;;17.48;56.06;97767.75;4828375;29;20027;-81
2020/12/04 05:15:36;;;;;;;0.32;0.30;;;;;;;17.51;56.21;97779.72;4819753;29;20047;-82
2020/12/04 05:18:18;;;;;;;0.25;0.25;;;;;;;17.48;56.19;97772.94;4838536;29;20500;-82
2020/12/04 05:21:12;;;;;;;0.43;0.30;;;;;;;17.49;56.41;97778.97;4815162;29;20084;-82
2020/12/04 05:23:53;;;;;;;0.30;0.30;;;;;;;17.50;56.25;97772.84;4824018;29;20069;-81
2020/12/04 05:26:36;;;;;;;0.65;0.30;;;;;;;17.48;55.86;97767.75;4844202;29;20046;-82
2020/12/04 05:29:03;;;;;;;0.30;0.30;;;;;;;17.51;56.25;97781.47;4846474;29;20065;-82
2020/12/04 05:31:32;;;;;;;1.42;0.40;;;;;;;17.51;56.28;97777.13;4850105;29;20150;-81
2020/12/04 05:34:04;;;;;;;0.45;0.32;;;;;;;17.51;56.09;97768.47;4846757;29;20058;-81
2020/12/04 05:36:36;;;;;;;0.47;0.30;;;;;;;17.50;56.19;97767.66;4845853;29;20064;-82
2020/12/04 05:39:07;;;;;;;0.35;0.30;;;;;;;17.51;56.33;97763.28;4863019;29;20065;-82
2020/12/04 05:41:45;;;;;;;0.40;0.30;;;;;;;17.50;56.03;97759.00;4839183;29;20058;-81
2020/12/04 09:48:43;;;;;;;1.10;0.60;;;;;;;18.00;53.40;98127.31;4883713;29;20063;-84
2020/12/04 09:51:12;;;;;;;1.02;0.57;;;;;;;18.01;53.48;98129.00;4878966;29;20033;-83
2020/12/04 09:53:44;;;;;;;1.08;0.52;;;;;;;17.98;53.59;98122.16;4863139;29;20043;-81
2020/12/04 09:56:10;;;;;;;1.10;0.57;;;;;;;17.99;53.44;98133.44;4862676;29;20030;-82
2020/12/04 09:59:28;;;;;;;1.40;0.65;;;;;;;18.01;53.38;98140.25;4865035;29;20001;-83
2020/12/04 10:02:12;;;;;;;1.85;0.60;;;;;;;17.98;53.26;98145.59;4846125;29;20050;-82
2020/12/04 10:05:19;;;;;;;0.82;0.50;;;;;;;17.97;53.30;98156.94;4865616;29;20129;-82
2020/12/04 10:08:32;;;;;;;1.90;0.70;;;;;;;17.97;53.60;98163.91;4863305;29;20046;-82
2020/12/04 10:11:16;;;;;;;1.45;0.60;;;;;;;17.91;53.54;98156.41;4842735;29;20025;-81
2020/12/04 10:23:35;;;;;;;0.90;0.60;;;;;;;17.92;53.42;98169.34;4883692;29;20080;-82
2020/12/04 10:28:54;;;;;;;0.82;0.40;;;;;;;17.87;53.50;98161.78;4848737;29;20022;-82
2020/12/04 10:31:21;;;;;;;0.80;0.40;;;;;;;17.85;53.53;98171.41;4858265;29;20474;-82
2020/12/04 10:34:16;;;;;;;1.05;0.60;;;;;;;17.86;53.70;98185.28;4845572;29;20034;-82
2020/12/04 10:36:58;;;;;;;0.68;0.50;;;;;;;17.83;53.38;98188.91;4839106;29;20050;-81
2020/12/04 10:40:04;;;;;;;1.48;0.73;;;;;;;17.85;53.20;98191.41;4834688;29;20034;-82
2020/12/04 10:44:06;;;;;;;2.90;0.60;;;;;;;17.84;53.25;98206.16;4864352;29;20083;-82
2020/12/04 10:47:36;;;;;;;0.63;0.45;;;;;;;17.84;53.35;98198.38;4848486;29;20042;-82
2020/12/04 10:54:26;;;;;;;1.40;0.50;;;;;;;17.85;53.05;98202.63;4861587;29;20030;-83
2020/12/04 10:57:30;;;;;;;1.08;0.50;;;;;;;17.85;53.35;98214.81;4849947;29;20041;-82
2020/12/04 10:59:57;;;;;;;;;;;;;;;17.84;53.09;98219.19;4849207;29;20039;-81
2020/12/04 11:02:39;;;;;;;2.00;0.60;;;;;;;17.83;53.14;98214.91;4856751;29;19916;-81
2020/12/04 11:08:29;;;;;;;1.45;0.60;;;;;;;17.81;53.10;98234.06;4853153;29;20041;-81
2020/12/04 11:11:33;;;;;;;0.77;0.50;;;;;;;17.82;53.26;98231.41;4803311;30;20130;-81
2020/12/04 11:48:59;;;;;;;0.75;0.30;;;;;;;17.98;52.23;98265.28;4960147;24;20082;-84
2020/12/04 12:11:04;;;;;;;0.43;0.30;;;;;;;18.00;51.78;98270.41;5076441;24;20053;-81
2020/12/04 12:13:31;;;;;;;0.75;0.30;;;;;;;18.02;51.80;98271.19;4866585;29;20110;-83
2020/12/04 12:15:57;;;;;;;1.55;0.40;;;;;;;18.05;52.18;98282.28;4868125;29;20041;-83
2020/12/04 15:37:30;;;;;;;1.83;0.60;;;;;;;18.06;51.74;98545.97;5017007;24;20057;-80
2020/12/04 15:47:41;;;;;;;1.35;0.50;;;;;;;18.07;51.87;98555.44;5279499;23;20057;-81
2020/12/04 15:50:28;;;;;;;1.45;0.55;;;;;;;18.08;52.03;98565.78;4859247;29;20032;-81
2020/12/04 16:05:51;;;;;;;0.90;0.50;;;;;;;18.05;51.92;98589.38;4960613;23;20064;-81
2020/12/04 16:08:16;;;;;;;1.48;0.52;;;;;;;18.06;51.85;98611.03;4865506;29;20048;-81
2020/12/04 19:25:06;;;;;;;1.73;0.95;;;;;;;17.75;53.40;98908.13;4196353;27;20087;-80
2020/12/04 19:31:22;;;;;;;1.83;1.00;;;;;;;17.69;52.96;98911.81;4849732;29;20083;-82
2020/12/04 19:36:52;;;;;;;2.08;0.90;;;;;;;17.67;52.19;98927.47;4847999;29;19989;-81
2020/12/04 19:39:43;;;;;;;2.97;1.30;;;;;;;17.69;51.64;98937.84;4813790;29;20043;-82
2020/12/04 22:44:20;;;;;;;1.52;1.00;;;;;;;17.57;52.50;99147.25;5126261;24;20076;-82
2020/12/04 22:46:46;;;;;;;1.73;1.02;;;;;;;17.52;52.69;99151.75;4868834;29;20029;-83
2020/12/04 22:49:12;;;;;;;2.20;1.33;;;;;;;17.44;52.43;99152.03;4845904;29;20097;-82
2020/12/04 22:51:38;;;;;;;2.45;1.10;;;;;;;17.40;53.01;99163.47;4868165;29;20021;-83
2020/12/04 22:54:04;;;;;;;2.05;1.40;;;;;;;17.38;53.20;99167.88;4875210;29;20034;-83
2020/12/04 23:33:56;;;;;;;2.38;1.20;;;;;;;17.24;52.74;99181.31;5409108;23;20062;-84
